createdAt,value
2019-05-21T00:00:56.193Z,41.33
2019-05-21T00:03:22.369Z,41.58
2019-05-21T00:05:48.521Z,41.54
2019-05-21T00:08:14.731Z,42.50
2019-05-21T00:10:40.876Z,43.23
2019-05-21T00:13:07.041Z,42.73
2019-05-21T00:15:33.249Z,41.80
2019-05-21T00:17:59.404Z,43.28
2019-05-21T00:20:25.680Z,46.47
2019-05-21T00:22:51.932Z,47.05
2019-05-21T00:25:18.080Z,47.70
2019-05-21T00:27:44.258Z,46.29
2019-05-21T00:30:47.541Z,47.03
2019-05-21T00:33:50.895Z,45.11
2019-05-21T00:36:56.008Z,44.23
2019-05-21T00:40:00.273Z,44.41
2019-05-21T00:42:32.825Z,44.77
2019-05-21T00:44:59.277Z,46.96
2019-05-21T00:47:25.451Z,45.22
2019-05-21T00:49:51.644Z,45.15
2019-05-21T00:52:17.827Z,43.83
2019-05-21T00:54:44.000Z,44.43
2019-05-21T00:57:10.210Z,44.29
2019-05-21T00:59:36.364Z,43.00
2019-05-21T01:02:02.540Z,42.69
2019-05-21T01:04:28.754Z,42.16
2019-05-21T01:06:54.908Z,42.30
2019-05-21T01:09:21.082Z,42.49
2019-05-21T01:11:47.511Z,42.48
2019-05-21T01:14:13.669Z,42.64
2019-05-21T01:16:39.855Z,43.19
2019-05-21T01:19:06.069Z,43.18
2019-05-21T01:21:32.223Z,42.89
2019-05-21T01:23:58.380Z,43.54
2019-05-21T01:26:24.594Z,43.75
2019-05-21T01:28:50.779Z,45.07
2019-05-21T01:31:16.960Z,44.87
2019-05-21T01:33:43.166Z,44.29
2019-05-21T01:36:09.327Z,44.27
2019-05-21T01:38:35.499Z,44.93
2019-05-21T01:41:01.693Z,47.63
2019-05-21T01:43:28.788Z,46.32
2019-05-21T01:45:54.964Z,45.35
2019-05-21T01:48:21.170Z,43.95
2019-05-21T01:50:47.346Z,43.94
2019-05-21T01:53:13.523Z,44.58
2019-05-21T01:55:39.703Z,44.04
2019-05-21T01:58:05.869Z,42.69
2019-05-21T02:00:32.155Z,43.13
2019-05-21T02:02:58.359Z,42.35
2019-05-21T02:05:32.543Z,43.11
2019-05-21T02:07:52.637Z,42.25
2019-05-21T02:10:18.881Z,41.36
2019-05-21T02:12:45.025Z,42.42
2019-05-21T02:15:11.610Z,42.44
2019-05-21T02:17:37.822Z,43.21
2019-05-21T02:20:04.472Z,42.88
2019-05-21T02:22:30.622Z,41.96
2019-05-21T02:24:56.826Z,40.63
2019-05-21T02:27:23.044Z,40.84
2019-05-21T02:29:49.260Z,41.26
2019-05-21T02:32:15.464Z,40.86
2019-05-21T02:34:41.618Z,41.34
2019-05-21T02:37:07.781Z,40.84
2019-05-21T02:39:33.998Z,40.31
2019-05-21T02:42:00.180Z,42.58
2019-05-21T02:44:26.513Z,41.48
2019-05-21T02:46:52.731Z,40.26
2019-05-21T02:49:18.887Z,41.09
2019-05-21T02:51:45.042Z,42.85
2019-05-21T02:54:11.252Z,44.19
2019-05-21T02:56:37.406Z,44.68
2019-05-21T02:59:03.638Z,44.26
2019-05-21T03:01:34.585Z,45.53
2019-05-21T03:04:00.822Z,45.26
2019-05-21T03:06:26.996Z,43.31
2019-05-21T03:08:53.200Z,40.77
2019-05-21T03:11:19.350Z,37.90
2019-05-21T03:13:45.527Z,36.88
2019-05-21T03:16:11.763Z,35.39
2019-05-21T03:18:38.002Z,37.34
2019-05-21T03:21:04.157Z,34.42
2019-05-21T03:23:30.480Z,33.05
2019-05-21T03:25:56.631Z,31.74
2019-05-21T03:28:22.807Z,30.14
2019-05-21T03:30:49.012Z,33.64
2019-05-21T03:33:15.569Z,35.05
2019-05-21T03:35:41.726Z,34.74
2019-05-21T03:38:07.931Z,36.24
2019-05-21T03:40:34.941Z,37.15
2019-05-21T03:43:01.111Z,35.13
2019-05-21T03:45:28.208Z,34.49
2019-05-21T03:47:54.389Z,30.56
2019-05-21T03:50:20.569Z,28.02
2019-05-21T03:52:46.750Z,27.41
2019-05-21T03:55:12.897Z,27.69
2019-05-21T03:57:39.171Z,26.17
2019-05-21T04:00:07.775Z,23.55
2019-05-21T04:02:33.945Z,21.60
2019-05-21T04:05:00.118Z,20.98
2019-05-21T04:07:26.303Z,20.93
2019-05-21T04:09:52.452Z,20.79
2019-05-21T04:12:18.633Z,22.32
2019-05-21T04:14:46.734Z,23.14
2019-05-21T04:17:34.568Z,24.47
2019-05-21T04:19:59.472Z,25.47
2019-05-21T04:22:25.636Z,24.25
2019-05-21T04:24:51.845Z,22.06
2019-05-21T04:27:18.009Z,20.27
2019-05-21T04:29:44.164Z,18.62
2019-05-21T04:32:10.334Z,21.65
2019-05-21T04:34:36.649Z,24.43
2019-05-21T04:37:10.492Z,25.70
2019-05-21T04:39:30.887Z,24.01
2019-05-21T04:41:57.293Z,24.39
2019-05-21T04:44:23.554Z,25.40
2019-05-21T04:46:49.885Z,25.24
2019-05-21T04:49:16.503Z,25.28
2019-05-21T04:51:42.661Z,25.79
2019-05-21T04:54:08.834Z,25.38
2019-05-21T04:56:35.039Z,26.61
2019-05-21T04:59:01.223Z,26.34
2019-05-21T05:01:27.393Z,25.80
2019-05-21T05:03:53.584Z,24.45
2019-05-21T05:06:19.842Z,22.65
2019-05-21T05:08:46.005Z,21.08
2019-05-21T05:11:12.213Z,18.40
2019-05-21T05:13:38.497Z,17.40
2019-05-21T05:16:04.759Z,17.45
2019-05-21T05:18:30.959Z,20.13
2019-05-21T05:20:57.142Z,20.27
2019-05-21T05:23:23.305Z,21.00
2019-05-21T05:25:49.555Z,22.58
2019-05-21T05:28:15.831Z,24.64
2019-05-21T05:30:41.988Z,26.01
2019-05-21T05:33:08.312Z,28.31
2019-05-21T05:35:34.465Z,30.85
2019-05-21T05:38:00.623Z,33.38
2019-05-21T05:40:26.849Z,35.55
2019-05-21T05:42:53.018Z,34.38
2019-05-21T05:45:19.396Z,33.93
2019-05-21T05:47:45.701Z,34.35
2019-05-21T05:50:30.787Z,34.80
2019-05-21T05:52:57.003Z,34.42
2019-05-21T05:55:23.167Z,33.85
2019-05-21T05:57:49.339Z,33.29
2019-05-21T06:00:16.558Z,32.64
2019-05-21T06:02:42.737Z,33.01
2019-05-21T06:05:09.418Z,33.68
2019-05-21T06:07:35.746Z,33.09
2019-05-21T06:10:03.542Z,31.39
2019-05-21T06:12:29.943Z,29.29
2019-05-21T06:14:56.135Z,27.22
2019-05-21T06:17:22.299Z,27.17
2019-05-21T06:19:48.478Z,27.73
2019-05-21T06:22:14.688Z,28.37
2019-05-21T06:24:40.974Z,30.48
2019-05-21T06:27:07.162Z,31.33
2019-05-21T06:29:33.361Z,29.66
2019-05-21T06:31:59.524Z,31.20
2019-05-21T06:34:25.712Z,31.90
2019-05-21T06:36:51.926Z,31.38
2019-05-21T06:39:18.099Z,34.68
2019-05-21T06:41:44.279Z,34.25
2019-05-21T06:44:10.590Z,30.98
2019-05-21T06:46:36.755Z,29.00
2019-05-21T06:49:02.957Z,30.90
2019-05-21T06:51:29.144Z,32.09
2019-05-21T06:53:55.315Z,29.78
2019-05-21T06:56:21.500Z,32.74
2019-05-21T06:58:47.699Z,31.45
2019-05-21T07:01:13.907Z,31.03
2019-05-21T07:03:40.166Z,29.10
2019-05-21T07:06:07.293Z,29.27
2019-05-21T07:08:35.226Z,29.35
2019-05-21T07:11:01.617Z,27.22
2019-05-21T07:13:31.048Z,27.09
2019-05-21T07:15:56.222Z,28.65
2019-05-21T07:18:22.429Z,27.01
2019-05-21T07:20:48.622Z,25.68
2019-05-21T07:23:14.803Z,23.94
2019-05-21T07:25:40.969Z,22.04
2019-05-21T07:28:07.169Z,22.78
2019-05-21T07:30:33.326Z,22.74
2019-05-21T07:32:59.541Z,22.05
2019-05-21T07:35:25.752Z,22.67
2019-05-21T07:37:52.158Z,24.23
2019-05-21T07:40:18.573Z,22.13
2019-05-21T07:42:44.763Z,20.58
2019-05-21T07:45:11.327Z,21.33
2019-05-21T07:47:37.515Z,24.15
2019-05-21T07:50:04.983Z,23.26
2019-05-21T07:52:31.138Z,22.55
2019-05-21T07:54:57.321Z,23.78
2019-05-21T07:57:23.541Z,25.43
2019-05-21T07:59:49.805Z,24.21
2019-05-21T08:02:15.997Z,22.94
2019-05-21T08:04:42.198Z,23.90
2019-05-21T08:07:08.452Z,23.05
2019-05-21T08:09:34.636Z,23.78
2019-05-21T08:12:00.823Z,26.53
2019-05-21T08:14:26.973Z,23.04
2019-05-21T08:16:53.151Z,22.34
2019-05-21T08:19:19.332Z,24.25
2019-05-21T08:21:45.620Z,24.72
2019-05-21T08:24:11.789Z,25.21
2019-05-21T08:26:37.974Z,24.55
2019-05-21T08:29:04.129Z,26.07
2019-05-21T08:31:30.406Z,25.18
2019-05-21T08:33:56.722Z,23.61
2019-05-21T08:36:22.886Z,24.33
2019-05-21T08:38:49.066Z,26.28
2019-05-21T08:41:15.343Z,25.89
2019-05-21T08:43:41.501Z,25.43
2019-05-21T08:46:07.689Z,26.00
2019-05-21T08:48:33.996Z,27.60
2019-05-21T08:51:02.840Z,26.95
2019-05-21T08:53:29.006Z,25.48
2019-05-21T08:55:55.323Z,25.08
2019-05-21T08:58:21.478Z,26.96
2019-05-21T09:00:47.778Z,27.21
2019-05-21T09:03:14.102Z,26.91
2019-05-21T09:05:40.255Z,27.40
2019-05-21T09:08:06.556Z,26.30
2019-05-21T09:10:32.794Z,25.43
2019-05-21T09:12:58.968Z,25.01
2019-05-21T09:15:25.126Z,25.80
2019-05-21T09:17:51.356Z,26.14
2019-05-21T09:20:17.915Z,26.37
2019-05-21T09:22:44.067Z,26.44
2019-05-21T09:25:10.790Z,27.93
2019-05-21T09:27:37.158Z,27.28
2019-05-21T09:30:05.629Z,25.68
2019-05-21T09:32:31.852Z,26.92
2019-05-21T09:34:58.021Z,25.24
2019-05-21T09:37:24.200Z,23.50
2019-05-21T09:39:50.401Z,24.23
2019-05-21T09:42:16.555Z,25.43
2019-05-21T09:44:42.748Z,25.41
2019-05-21T09:47:08.952Z,24.67
2019-05-21T09:49:35.113Z,26.16
2019-05-21T09:52:01.283Z,26.18
2019-05-21T09:54:27.488Z,25.54
2019-05-21T09:56:53.756Z,24.51
2019-05-21T09:59:24.607Z,24.67
2019-05-21T10:02:10.553Z,24.43
2019-05-21T10:04:36.813Z,23.40
2019-05-21T10:07:03.377Z,22.31
2019-05-21T10:09:29.592Z,22.97
2019-05-21T10:11:55.763Z,22.10
2019-05-21T10:14:22.041Z,22.50
2019-05-21T10:16:48.250Z,20.76
2019-05-21T10:19:14.527Z,19.80
2019-05-21T10:21:40.781Z,20.08
2019-05-21T10:24:06.999Z,20.30
2019-05-21T10:26:33.693Z,19.61
2019-05-21T10:28:59.852Z,18.80
2019-05-21T10:31:26.153Z,21.20
2019-05-21T10:33:52.336Z,23.54
2019-05-21T10:36:18.598Z,23.93
2019-05-21T10:38:44.804Z,23.08
2019-05-21T10:41:10.986Z,24.12
2019-05-21T10:43:37.149Z,22.19
2019-05-21T10:46:04.230Z,24.27
2019-05-21T10:48:30.467Z,24.87
2019-05-21T10:50:56.629Z,25.39
2019-05-21T10:53:26.517Z,22.97
2019-05-21T10:55:52.685Z,23.57
2019-05-21T10:58:18.898Z,24.04
2019-05-21T11:00:47.182Z,24.64
2019-05-21T11:03:31.720Z,23.06
2019-05-21T11:06:09.652Z,22.90
2019-05-21T11:08:26.117Z,21.89
2019-05-21T11:10:52.287Z,24.00
2019-05-21T11:13:18.774Z,24.73
2019-05-21T11:15:46.264Z,22.86
2019-05-21T11:18:12.461Z,23.32
2019-05-21T11:20:39.632Z,23.45
2019-05-21T11:23:05.813Z,24.12
2019-05-21T11:25:32.305Z,24.58
2019-05-21T11:27:58.505Z,24.67
2019-05-21T11:30:24.770Z,22.92
2019-05-21T11:32:50.960Z,24.39
2019-05-21T11:35:17.245Z,24.69
2019-05-21T11:37:47.647Z,24.97
2019-05-21T11:40:13.259Z,22.56
2019-05-21T11:42:39.636Z,23.60
2019-05-21T11:45:06.494Z,24.22
2019-05-21T11:47:32.675Z,23.38
2019-05-21T11:49:58.901Z,23.58
2019-05-21T11:52:25.058Z,24.90
2019-05-21T11:54:51.256Z,25.98
2019-05-21T11:57:17.548Z,24.64
2019-05-21T11:59:43.701Z,24.52
2019-05-21T12:02:10.385Z,26.35
2019-05-21T12:04:36.574Z,26.20
2019-05-21T12:07:03.712Z,26.54
2019-05-21T12:09:30.164Z,28.06
2019-05-21T12:11:56.367Z,26.64
2019-05-21T12:14:22.552Z,24.70
2019-05-21T12:16:48.716Z,23.50
2019-05-21T12:19:15.021Z,24.46
2019-05-21T12:21:42.392Z,27.89
2019-05-21T12:24:08.769Z,29.49
2019-05-21T12:26:34.960Z,28.39
2019-05-21T12:29:01.116Z,29.87
2019-05-21T12:31:27.295Z,29.52
2019-05-21T12:33:53.595Z,27.82
2019-05-21T12:36:19.900Z,25.86
2019-05-21T12:38:46.192Z,26.15
2019-05-21T12:41:13.672Z,24.48
2019-05-21T12:43:40.259Z,24.84
2019-05-21T12:46:06.531Z,22.93
2019-05-21T12:48:32.843Z,22.37
2019-05-21T12:50:59.009Z,22.47
2019-05-21T12:53:25.184Z,22.54
2019-05-21T12:55:52.384Z,22.92
2019-05-21T12:58:18.556Z,24.28
2019-05-21T13:00:44.838Z,23.50
2019-05-21T13:03:11.077Z,23.97
2019-05-21T13:05:37.214Z,23.97
2019-05-21T13:08:03.621Z,21.49
2019-05-21T13:10:29.800Z,23.49
2019-05-21T13:12:55.961Z,23.84
2019-05-21T13:15:22.263Z,23.15
2019-05-21T13:17:48.483Z,24.51
2019-05-21T13:20:15.540Z,25.39
2019-05-21T13:22:41.737Z,24.87
2019-05-21T13:25:07.936Z,25.62
2019-05-21T13:27:34.095Z,26.35
2019-05-21T13:30:00.474Z,26.65
2019-05-21T13:32:26.665Z,27.88
2019-05-21T13:34:52.845Z,27.50
2019-05-21T13:37:19.027Z,27.12
2019-05-21T13:39:49.837Z,27.07
2019-05-21T13:42:13.270Z,30.16
2019-05-21T13:44:39.592Z,35.07
2019-05-21T13:47:05.891Z,49.52
2019-05-21T13:49:32.041Z,59.21
2019-05-21T13:51:58.217Z,57.22
2019-05-21T13:54:24.504Z,54.77
2019-05-21T13:56:51.514Z,55.58
2019-05-21T13:59:18.006Z,56.54
2019-05-21T14:01:44.300Z,53.97
2019-05-21T14:04:10.549Z,51.69
2019-05-21T14:06:36.699Z,50.19
2019-05-21T14:09:04.906Z,49.44
2019-05-21T14:11:31.965Z,49.25
2019-05-21T14:13:58.142Z,47.22
2019-05-21T14:16:24.517Z,44.08
2019-05-21T14:18:50.740Z,46.66
2019-05-21T14:21:17.069Z,48.80
2019-05-21T14:23:43.274Z,45.11
2019-05-21T14:26:09.615Z,45.32
2019-05-21T14:28:35.784Z,43.32
2019-05-21T14:31:02.100Z,42.66
2019-05-21T14:33:28.256Z,39.85
2019-05-21T14:35:54.421Z,38.01
2019-05-21T14:38:20.628Z,38.87
2019-05-21T14:40:47.683Z,39.58
2019-05-21T14:43:13.863Z,42.76
2019-05-21T14:45:40.170Z,46.52
2019-05-21T14:48:06.326Z,44.65
2019-05-21T14:50:32.516Z,41.39
2019-05-21T14:52:58.695Z,40.38
2019-05-21T14:55:24.848Z,38.42
2019-05-21T14:57:51.047Z,39.18
2019-05-21T15:13:32.901Z,33.63
2019-05-21T15:15:59.077Z,34.10
2019-05-21T15:18:25.349Z,32.00
2019-05-21T15:20:56.052Z,33.89
2019-05-21T15:23:22.395Z,31.42
2019-05-21T15:25:48.569Z,31.57
2019-05-21T15:28:14.767Z,31.33
2019-05-21T15:43:11.014Z,35.17
2019-05-21T15:45:37.174Z,34.75
2019-05-21T15:48:03.453Z,37.93
2019-05-21T15:50:29.647Z,37.51
2019-05-21T15:52:56.133Z,35.75
2019-05-21T15:55:22.317Z,33.71
2019-05-21T15:57:48.526Z,31.96
2019-05-21T16:00:15.590Z,31.29
2019-05-21T16:02:41.843Z,33.60
2019-05-21T16:05:08.427Z,33.99
2019-05-21T16:07:34.681Z,33.52
2019-05-21T16:10:00.883Z,31.54
2019-05-21T16:12:27.053Z,32.55
2019-05-21T16:14:53.232Z,31.46
2019-05-21T16:17:19.417Z,31.61
2019-05-21T16:19:45.596Z,30.70
2019-05-21T16:22:11.873Z,30.82
2019-05-21T16:24:38.069Z,29.17
2019-05-21T16:27:04.263Z,30.98
2019-05-21T16:29:30.444Z,34.06
2019-05-21T16:31:56.718Z,35.71
2019-05-21T16:34:22.887Z,35.62
2019-05-21T16:36:49.072Z,33.83
2019-05-21T16:39:18.943Z,35.91
2019-05-21T16:41:45.612Z,35.04
2019-05-21T16:44:12.110Z,36.18
2019-05-21T16:46:38.406Z,35.38
2019-05-21T16:49:04.584Z,37.41
2019-05-21T16:51:30.772Z,36.12
2019-05-21T16:53:57.454Z,36.40
2019-05-21T16:56:23.639Z,36.40
2019-05-21T16:58:49.839Z,37.46
2019-05-21T17:01:16.620Z,38.33
2019-05-21T17:03:42.935Z,36.73
2019-05-21T17:06:09.192Z,37.27
2019-05-21T17:08:35.370Z,36.52
2019-05-21T17:11:01.575Z,37.45
2019-05-21T17:13:27.736Z,37.76
2019-05-21T17:15:53.934Z,37.84
2019-05-21T17:18:20.155Z,37.86
2019-05-21T17:20:46.309Z,39.06
2019-05-21T17:23:12.475Z,37.15
2019-05-21T17:25:38.700Z,37.21
2019-05-21T17:28:04.939Z,37.41
2019-05-21T17:30:31.330Z,38.23
2019-05-21T17:32:57.537Z,38.16
2019-05-21T17:35:23.689Z,38.17
2019-05-21T17:37:49.865Z,37.41
2019-05-21T17:40:16.058Z,38.94
2019-05-21T17:42:42.227Z,39.80
2019-05-21T17:45:08.924Z,40.51
2019-05-21T17:47:36.079Z,39.11
2019-05-21T17:50:04.257Z,39.59
2019-05-21T17:52:30.445Z,41.17
2019-05-21T17:54:57.305Z,40.02
2019-05-21T17:57:24.187Z,39.59
2019-05-21T17:59:50.469Z,39.28
2019-05-21T18:02:17.388Z,38.11
2019-05-21T18:04:43.857Z,41.12
2019-05-21T18:07:11.736Z,39.73
2019-05-21T18:09:38.627Z,40.91
2019-05-21T18:12:09.003Z,40.58
2019-05-21T18:14:35.386Z,39.67
2019-05-21T18:17:01.659Z,39.66
2019-05-21T18:19:28.359Z,38.95
2019-05-21T18:21:54.518Z,39.23
2019-05-21T18:24:20.849Z,39.60
2019-05-21T18:26:46.997Z,39.19
2019-05-21T18:29:13.173Z,40.33
2019-05-21T18:31:39.491Z,39.54
2019-05-21T18:34:05.746Z,42.44
2019-05-21T18:36:32.016Z,40.83
2019-05-21T18:38:58.268Z,41.71
2019-05-21T18:41:24.446Z,42.74
2019-05-21T18:43:50.817Z,41.68
2019-05-21T18:46:17.030Z,42.35
2019-05-21T18:48:43.181Z,42.14
2019-05-21T18:51:09.338Z,41.84
2019-05-21T18:53:35.751Z,42.57
2019-05-21T18:56:01.907Z,42.24
2019-05-21T18:58:28.185Z,41.37
2019-05-21T19:00:54.412Z,40.92
2019-05-21T19:03:26.182Z,43.40
2019-05-21T19:05:48.669Z,42.16
2019-05-21T19:08:14.869Z,40.83
2019-05-21T19:10:41.027Z,41.97
2019-05-21T19:13:07.204Z,41.21
2019-05-21T19:15:33.540Z,41.13
2019-05-21T19:17:59.697Z,41.38
2019-05-21T19:20:25.859Z,40.93
2019-05-21T19:22:52.162Z,41.28
2019-05-21T19:25:18.441Z,42.09
2019-05-21T19:27:44.754Z,42.15
2019-05-21T19:30:12.010Z,41.77
2019-05-21T19:32:38.184Z,41.13
2019-05-21T19:35:05.102Z,40.79
2019-05-21T19:37:31.415Z,40.03
2019-05-21T19:39:57.864Z,40.60
2019-05-21T19:42:24.060Z,40.35
2019-05-21T19:44:50.404Z,40.54
2019-05-21T19:47:16.684Z,40.97
2019-05-21T19:49:42.964Z,42.05
2019-05-21T19:52:09.201Z,40.49
2019-05-21T19:54:35.507Z,41.36
2019-05-21T19:57:02.088Z,40.16
2019-05-21T19:59:28.877Z,40.69
2019-05-21T20:01:55.484Z,41.41
2019-05-21T20:04:23.371Z,44.13
2019-05-21T20:06:49.707Z,42.28
2019-05-21T20:09:16.708Z,41.19
2019-05-21T20:11:43.081Z,41.72
2019-05-21T20:14:09.915Z,43.04
2019-05-21T20:16:37.108Z,43.24
2019-05-21T20:19:04.617Z,41.10
2019-05-21T20:21:31.562Z,40.92
2019-05-21T20:23:57.830Z,40.36
2019-05-21T20:26:24.234Z,41.23
2019-05-21T20:28:50.556Z,39.66
2019-05-21T20:31:16.939Z,39.09
2019-05-21T20:33:44.424Z,39.00
2019-05-21T20:36:10.759Z,39.66
2019-05-21T20:38:37.156Z,42.66
2019-05-21T20:41:04.367Z,43.54
2019-05-21T20:43:30.740Z,42.72
2019-05-21T20:45:57.017Z,40.30
2019-05-21T20:48:25.595Z,41.59
2019-05-21T20:50:52.686Z,41.29
2019-05-21T20:53:18.882Z,39.57
2019-05-21T20:55:46.047Z,39.98
2019-05-21T20:58:12.933Z,40.48
2019-05-21T21:00:52.925Z,39.31
2019-05-21T21:03:19.334Z,39.35
2019-05-21T21:05:45.516Z,40.63
2019-05-21T21:08:13.394Z,40.91
2019-05-21T21:10:40.178Z,40.69
2019-05-21T21:13:08.430Z,40.10
2019-05-21T21:15:35.302Z,39.10
2019-05-21T21:18:02.610Z,39.57
2019-05-21T21:20:28.804Z,40.35
2019-05-21T21:22:55.439Z,39.11
2019-05-21T21:25:23.527Z,39.41
2019-05-21T21:27:49.783Z,38.87
2019-05-21T21:30:16.155Z,39.68
2019-05-21T21:32:42.351Z,38.73
2019-05-21T21:35:10.227Z,36.98
2019-05-21T21:37:36.598Z,36.42
2019-05-21T21:40:05.589Z,36.21
2019-05-21T21:42:32.782Z,34.93
2019-05-21T21:44:59.454Z,34.25
2019-05-21T21:47:25.961Z,35.06
2019-05-21T21:49:52.539Z,35.08
2019-05-21T21:52:18.717Z,37.04
2019-05-21T21:54:45.614Z,36.40
2019-05-21T21:57:11.873Z,35.40
2019-05-21T21:59:38.053Z,34.95
2019-05-21T22:02:30.411Z,34.79
2019-05-21T22:04:56.993Z,34.62
2019-05-21T22:07:23.776Z,36.41
2019-05-21T22:09:50.511Z,36.01
2019-05-21T22:12:17.095Z,35.67
2019-05-21T22:14:51.586Z,38.18
2019-05-21T22:17:14.689Z,39.25
2019-05-21T22:19:40.885Z,36.84
2019-05-21T22:22:07.613Z,37.44
2019-05-21T22:24:34.078Z,36.29
2019-05-21T22:27:00.376Z,35.95
2019-05-21T22:29:26.670Z,36.19
2019-05-21T22:31:52.905Z,37.93
2019-05-21T22:34:20.095Z,37.39
2019-05-21T22:36:46.396Z,38.21
2019-05-21T22:39:14.513Z,37.41
2019-05-21T22:41:41.336Z,37.65
2019-05-21T22:44:07.531Z,36.17
2019-05-21T22:46:33.741Z,37.11
2019-05-21T22:49:00.392Z,35.56
2019-05-21T22:51:26.563Z,37.83
2019-05-21T22:53:52.797Z,37.90
2019-05-21T22:56:19.073Z,38.58
2019-05-21T22:58:45.341Z,39.17
2019-05-21T23:01:11.668Z,38.20
2019-05-21T23:03:37.941Z,38.07
2019-05-21T23:06:04.137Z,37.92
2019-05-21T23:08:31.279Z,38.55
2019-05-21T23:10:57.463Z,38.29
2019-05-21T23:13:23.645Z,37.00
2019-05-21T23:15:50.748Z,36.64
2019-05-21T23:18:17.732Z,35.73
2019-05-21T23:20:44.527Z,37.54
2019-05-21T23:23:10.865Z,36.30
2019-05-21T23:25:38.976Z,35.62
2019-05-21T23:28:05.456Z,34.84
2019-05-21T23:30:31.967Z,34.79
2019-05-21T23:32:58.146Z,34.90
2019-05-21T23:35:25.423Z,35.46
2019-05-21T23:37:52.743Z,35.72
2019-05-21T23:40:21.436Z,34.98
2019-05-21T23:42:47.712Z,36.41
2019-05-21T23:45:15.047Z,35.77
2019-05-21T23:47:41.225Z,35.36
2019-05-21T23:50:08.699Z,35.32
2019-05-21T23:52:37.243Z,35.12
2019-05-21T23:55:05.230Z,34.79
2019-05-21T23:57:33.506Z,35.83
